sensor_id;sensor_type;location;lat;lon;timestamp;P1;durP1;ratioP1;P2;durP2;ratioP2
3995;SDS011;2012;49.794;9.722;2023-04-16T00:01:58;7.73;;;4.73;;
3995;SDS011;2012;49.794;9.722;2023-04-16T00:04:26;5.43;;;4.83;;
3995;SDS011;2012;49.794;9.722;2023-04-16T00:06:53;6.57;;;4.73;;
3995;SDS011;2012;49.794;9.722;2023-04-16T00:09:20;11.20;;;7.60;;
3995;SDS011;2012;49.794;9.722;2023-04-16T00:11:46;11.57;;;6.37;;
3995;SDS011;2012;49.794;9.722;2023-04-16T00:14:13;10.87;;;6.50;;
3995;SDS011;2012;49.794;9.722;2023-04-16T00:16:40;9.27;;;5.87;;
3995;SDS011;2012;49.794;9.722;2023-04-16T00:19:07;11.80;;;7.70;;
3995;SDS011;2012;49.794;9.722;2023-04-16T00:21:35;8.83;;;6.27;;
3995;SDS011;2012;49.794;9.722;2023-04-16T00:24:02;6.57;;;5.87;;
3995;SDS011;2012;49.794;9.722;2023-04-16T00:26:28;10.23;;;5.57;;
3995;SDS011;2012;49.794;9.722;2023-04-16T00:28:55;7.07;;;5.57;;
3995;SDS011;2012;49.794;9.722;2023-04-16T00:31:26;11.37;;;6.37;;
3995;SDS011;2012;49.794;9.722;2023-04-16T00:33:57;7.67;;;6.20;;
3995;SDS011;2012;49.794;9.722;2023-04-16T00:36:25;11.23;;;7.20;;
3995;SDS011;2012;49.794;9.722;2023-04-16T00:38:53;9.97;;;8.07;;
3995;SDS011;2012;49.794;9.722;2023-04-16T00:41:20;9.10;;;7.47;;
3995;SDS011;2012;49.794;9.722;2023-04-16T00:43:51;9.53;;;7.43;;
3995;SDS011;2012;49.794;9.722;2023-04-16T00:46:18;11.87;;;7.63;;
3995;SDS011;2012;49.794;9.722;2023-04-16T00:48:46;9.33;;;6.63;;
3995;SDS011;2012;49.794;9.722;2023-04-16T00:51:17;8.50;;;7.50;;
3995;SDS011;2012;49.794;9.722;2023-04-16T00:53:45;6.50;;;5.87;;
3995;SDS011;2012;49.794;9.722;2023-04-16T00:56:13;8.10;;;6.73;;
3995;SDS011;2012;49.794;9.722;2023-04-16T00:58:39;9.23;;;7.60;;
3995;SDS011;2012;49.794;9.722;2023-04-16T01:01:06;7.93;;;6.50;;
3995;SDS011;2012;49.794;9.722;2023-04-16T01:03:37;8.70;;;6.97;;
3995;SDS011;2012;49.794;9.722;2023-04-16T01:06:17;8.93;;;5.90;;
3995;SDS011;2012;49.794;9.722;2023-04-16T01:08:45;7.90;;;6.60;;
3995;SDS011;2012;49.794;9.722;2023-04-16T01:11:13;9.10;;;6.03;;
3995;SDS011;2012;49.794;9.722;2023-04-16T01:13:40;8.37;;;6.97;;
3995;SDS011;2012;49.794;9.722;2023-04-16T01:16:08;7.40;;;6.43;;
3995;SDS011;2012;49.794;9.722;2023-04-16T01:18:37;6.50;;;5.63;;
3995;SDS011;2012;49.794;9.722;2023-04-16T01:21:04;7.77;;;5.97;;
3995;SDS011;2012;49.794;9.722;2023-04-16T01:23:32;7.37;;;6.03;;
3995;SDS011;2012;49.794;9.722;2023-04-16T01:25:58;10.70;;;6.83;;
3995;SDS011;2012;49.794;9.722;2023-04-16T01:28:25;13.07;;;7.97;;
3995;SDS011;2012;49.794;9.722;2023-04-16T01:30:53;9.70;;;6.97;;
3995;SDS011;2012;49.794;9.722;2023-04-16T01:33:38;7.93;;;6.50;;
3995;SDS011;2012;49.794;9.722;2023-04-16T01:36:05;8.37;;;6.13;;
3995;SDS011;2012;49.794;9.722;2023-04-16T01:38:32;6.20;;;5.43;;
3995;SDS011;2012;49.794;9.722;2023-04-16T01:40:59;6.93;;;5.50;;
3995;SDS011;2012;49.794;9.722;2023-04-16T01:43:27;12.33;;;6.23;;
3995;SDS011;2012;49.794;9.722;2023-04-16T01:46:07;7.80;;;6.03;;
3995;SDS011;2012;49.794;9.722;2023-04-16T01:48:40;9.33;;;6.00;;
3995;SDS011;2012;49.794;9.722;2023-04-16T01:51:08;7.37;;;6.10;;
3995;SDS011;2012;49.794;9.722;2023-04-16T01:53:35;8.97;;;7.27;;
3995;SDS011;2012;49.794;9.722;2023-04-16T01:56:02;7.93;;;6.00;;
3995;SDS011;2012;49.794;9.722;2023-04-16T01:58:31;10.10;;;5.83;;
3995;SDS011;2012;49.794;9.722;2023-04-16T02:00:58;9.73;;;7.03;;
3995;SDS011;2012;49.794;9.722;2023-04-16T02:03:26;16.23;;;6.50;;
3995;SDS011;2012;49.794;9.722;2023-04-16T02:05:53;8.00;;;6.43;;
3995;SDS011;2012;49.794;9.722;2023-04-16T02:08:20;10.87;;;7.83;;
3995;SDS011;2012;49.794;9.722;2023-04-16T02:10:47;9.90;;;7.50;;
3995;SDS011;2012;49.794;9.722;2023-04-16T02:13:15;12.07;;;7.77;;
3995;SDS011;2012;49.794;9.722;2023-04-16T02:15:45;10.03;;;7.70;;
3995;SDS011;2012;49.794;9.722;2023-04-16T02:18:16;11.27;;;7.77;;
3995;SDS011;2012;49.794;9.722;2023-04-16T02:20:44;11.13;;;8.60;;
3995;SDS011;2012;49.794;9.722;2023-04-16T02:23:12;12.50;;;8.53;;
3995;SDS011;2012;49.794;9.722;2023-04-16T02:25:43;12.23;;;9.70;;
3995;SDS011;2012;49.794;9.722;2023-04-16T02:28:13;12.20;;;9.70;;
3995;SDS011;2012;49.794;9.722;2023-04-16T02:30:42;16.40;;;10.60;;
3995;SDS011;2012;49.794;9.722;2023-04-16T02:33:11;16.17;;;11.20;;
3995;SDS011;2012;49.794;9.722;2023-04-16T02:35:45;13.67;;;10.50;;
3995;SDS011;2012;49.794;9.722;2023-04-16T02:38:13;14.67;;;10.57;;
3995;SDS011;2012;49.794;9.722;2023-04-16T02:40:40;18.53;;;14.03;;
3995;SDS011;2012;49.794;9.722;2023-04-16T02:43:07;19.53;;;13.53;;
3995;SDS011;2012;49.794;9.722;2023-04-16T02:45:34;17.13;;;12.37;;
3995;SDS011;2012;49.794;9.722;2023-04-16T02:48:01;23.20;;;14.37;;
3995;SDS011;2012;49.794;9.722;2023-04-16T02:50:28;18.17;;;14.13;;
3995;SDS011;2012;49.794;9.722;2023-04-16T02:52:54;21.40;;;14.30;;
3995;SDS011;2012;49.794;9.722;2023-04-16T02:55:21;20.40;;;14.07;;
3995;SDS011;2012;49.794;9.722;2023-04-16T02:57:48;20.77;;;13.70;;
3995;SDS011;2012;49.794;9.722;2023-04-16T03:00:15;20.63;;;13.73;;
3995;SDS011;2012;49.794;9.722;2023-04-16T03:02:42;23.63;;;14.30;;
3995;SDS011;2012;49.794;9.722;2023-04-16T03:05:09;22.60;;;14.93;;
3995;SDS011;2012;49.794;9.722;2023-04-16T03:07:37;23.53;;;14.87;;
3995;SDS011;2012;49.794;9.722;2023-04-16T03:10:06;20.00;;;14.37;;
3995;SDS011;2012;49.794;9.722;2023-04-16T03:12:34;22.20;;;14.40;;
3995;SDS011;2012;49.794;9.722;2023-04-16T03:15:05;20.53;;;13.57;;
3995;SDS011;2012;49.794;9.722;2023-04-16T03:17:32;21.13;;;13.70;;
3995;SDS011;2012;49.794;9.722;2023-04-16T03:19:59;25.33;;;15.00;;
3995;SDS011;2012;49.794;9.722;2023-04-16T03:22:26;23.20;;;14.20;;
3995;SDS011;2012;49.794;9.722;2023-04-16T03:24:53;23.43;;;15.17;;
3995;SDS011;2012;49.794;9.722;2023-04-16T03:27:20;23.93;;;14.63;;
3995;SDS011;2012;49.794;9.722;2023-04-16T03:29:47;22.00;;;13.97;;
3995;SDS011;2012;49.794;9.722;2023-04-16T03:32:14;21.17;;;13.97;;
3995;SDS011;2012;49.794;9.722;2023-04-16T03:34:41;19.30;;;13.50;;
3995;SDS011;2012;49.794;9.722;2023-04-16T03:37:08;17.27;;;12.83;;
3995;SDS011;2012;49.794;9.722;2023-04-16T03:39:37;19.50;;;13.43;;
3995;SDS011;2012;49.794;9.722;2023-04-16T03:42:04;21.13;;;14.10;;
3995;SDS011;2012;49.794;9.722;2023-04-16T03:44:32;21.33;;;14.43;;
3995;SDS011;2012;49.794;9.722;2023-04-16T03:47:00;24.50;;;14.30;;
3995;SDS011;2012;49.794;9.722;2023-04-16T03:49:27;18.63;;;12.50;;
3995;SDS011;2012;49.794;9.722;2023-04-16T03:51:55;19.70;;;13.60;;
3995;SDS011;2012;49.794;9.722;2023-04-16T03:54:21;20.00;;;12.00;;
3995;SDS011;2012;49.794;9.722;2023-04-16T03:56:56;20.10;;;12.70;;
3995;SDS011;2012;49.794;9.722;2023-04-16T03:59:23;21.50;;;14.90;;
3995;SDS011;2012;49.794;9.722;2023-04-16T04:01:50;18.70;;;12.67;;
3995;SDS011;2012;49.794;9.722;2023-04-16T04:04:17;15.70;;;12.10;;
3995;SDS011;2012;49.794;9.722;2023-04-16T04:06:44;14.30;;;11.17;;
3995;SDS011;2012;49.794;9.722;2023-04-16T04:09:12;16.37;;;11.10;;
3995;SDS011;2012;49.794;9.722;2023-04-16T04:11:41;14.43;;;10.93;;
3995;SDS011;2012;49.794;9.722;2023-04-16T04:14:08;16.90;;;11.43;;
3995;SDS011;2012;49.794;9.722;2023-04-16T04:16:35;16.43;;;12.30;;
3995;SDS011;2012;49.794;9.722;2023-04-16T04:19:02;18.93;;;12.10;;
3995;SDS011;2012;49.794;9.722;2023-04-16T04:21:29;17.47;;;12.27;;
3995;SDS011;2012;49.794;9.722;2023-04-16T04:23:57;21.30;;;12.87;;
3995;SDS011;2012;49.794;9.722;2023-04-16T04:26:23;14.03;;;10.67;;
3995;SDS011;2012;49.794;9.722;2023-04-16T04:28:51;19.90;;;12.40;;
3995;SDS011;2012;49.794;9.722;2023-04-16T04:31:18;18.60;;;12.17;;
3995;SDS011;2012;49.794;9.722;2023-04-16T04:33:44;22.80;;;12.77;;
3995;SDS011;2012;49.794;9.722;2023-04-16T04:36:12;18.30;;;12.40;;
3995;SDS011;2012;49.794;9.722;2023-04-16T04:38:38;18.80;;;12.13;;
3995;SDS011;2012;49.794;9.722;2023-04-16T04:41:05;18.63;;;12.37;;
3995;SDS011;2012;49.794;9.722;2023-04-16T04:43:35;20.13;;;13.47;;
3995;SDS011;2012;49.794;9.722;2023-04-16T04:46:02;21.63;;;14.27;;
3995;SDS011;2012;49.794;9.722;2023-04-16T04:48:30;20.27;;;14.33;;
3995;SDS011;2012;49.794;9.722;2023-04-16T04:50:57;21.80;;;14.57;;
3995;SDS011;2012;49.794;9.722;2023-04-16T04:53:24;20.77;;;14.93;;
3995;SDS011;2012;49.794;9.722;2023-04-16T04:55:52;21.50;;;12.97;;
3995;SDS011;2012;49.794;9.722;2023-04-16T04:58:27;22.80;;;15.30;;
3995;SDS011;2012;49.794;9.722;2023-04-16T05:00:53;23.03;;;14.97;;
3995;SDS011;2012;49.794;9.722;2023-04-16T05:03:20;19.23;;;13.90;;
3995;SDS011;2012;49.794;9.722;2023-04-16T05:05:47;24.13;;;15.47;;
3995;SDS011;2012;49.794;9.722;2023-04-16T05:08:14;23.43;;;14.43;;
3995;SDS011;2012;49.794;9.722;2023-04-16T05:10:41;21.20;;;13.53;;
3995;SDS011;2012;49.794;9.722;2023-04-16T05:13:08;19.50;;;14.17;;
3995;SDS011;2012;49.794;9.722;2023-04-16T05:15:34;22.63;;;16.40;;
3995;SDS011;2012;49.794;9.722;2023-04-16T05:18:01;23.90;;;16.40;;
3995;SDS011;2012;49.794;9.722;2023-04-16T05:20:28;19.67;;;14.80;;
3995;SDS011;2012;49.794;9.722;2023-04-16T05:22:55;24.10;;;16.27;;
3995;SDS011;2012;49.794;9.722;2023-04-16T05:25:22;25.47;;;15.73;;
3995;SDS011;2012;49.794;9.722;2023-04-16T05:27:49;30.07;;;15.37;;
3995;SDS011;2012;49.794;9.722;2023-04-16T05:30:16;25.37;;;15.17;;
3995;SDS011;2012;49.794;9.722;2023-04-16T05:32:43;34.20;;;17.50;;
3995;SDS011;2012;49.794;9.722;2023-04-16T05:35:09;23.30;;;15.90;;
3995;SDS011;2012;49.794;9.722;2023-04-16T05:37:36;20.90;;;15.37;;
3995;SDS011;2012;49.794;9.722;2023-04-16T05:40:03;23.97;;;16.57;;
3995;SDS011;2012;49.794;9.722;2023-04-16T05:42:30;27.57;;;17.77;;
3995;SDS011;2012;49.794;9.722;2023-04-16T05:44:57;25.93;;;16.43;;
3995;SDS011;2012;49.794;9.722;2023-04-16T05:47:24;24.40;;;16.10;;
3995;SDS011;2012;49.794;9.722;2023-04-16T05:49:51;23.30;;;16.30;;
3995;SDS011;2012;49.794;9.722;2023-04-16T05:52:17;23.30;;;15.70;;
3995;SDS011;2012;49.794;9.722;2023-04-16T05:54:44;22.97;;;16.57;;
3995;SDS011;2012;49.794;9.722;2023-04-16T05:57:12;24.30;;;16.47;;
3995;SDS011;2012;49.794;9.722;2023-04-16T05:59:39;19.97;;;14.73;;
3995;SDS011;2012;49.794;9.722;2023-04-16T06:02:06;22.70;;;15.30;;
3995;SDS011;2012;49.794;9.722;2023-04-16T06:04:33;25.40;;;14.80;;
3995;SDS011;2012;49.794;9.722;2023-04-16T06:07:01;28.93;;;15.87;;
3995;SDS011;2012;49.794;9.722;2023-04-16T06:09:28;23.67;;;15.93;;
3995;SDS011;2012;49.794;9.722;2023-04-16T06:11:55;25.17;;;15.90;;
3995;SDS011;2012;49.794;9.722;2023-04-16T06:14:23;25.40;;;17.87;;
3995;SDS011;2012;49.794;9.722;2023-04-16T06:16:50;29.40;;;17.37;;
3995;SDS011;2012;49.794;9.722;2023-04-16T06:19:16;26.60;;;16.20;;
3995;SDS011;2012;49.794;9.722;2023-04-16T06:21:43;25.97;;;17.17;;
3995;SDS011;2012;49.794;9.722;2023-04-16T06:24:10;27.90;;;17.30;;
3995;SDS011;2012;49.794;9.722;2023-04-16T06:26:38;25.43;;;17.33;;
3995;SDS011;2012;49.794;9.722;2023-04-16T06:29:05;24.50;;;17.60;;
3995;SDS011;2012;49.794;9.722;2023-04-16T06:31:32;33.37;;;19.20;;
3995;SDS011;2012;49.794;9.722;2023-04-16T06:33:59;24.47;;;17.10;;
3995;SDS011;2012;49.794;9.722;2023-04-16T06:36:26;30.40;;;18.00;;
3995;SDS011;2012;49.794;9.722;2023-04-16T06:38:54;26.10;;;17.77;;
3995;SDS011;2012;49.794;9.722;2023-04-16T06:41:21;28.00;;;16.30;;
3995;SDS011;2012;49.794;9.722;2023-04-16T06:43:50;25.03;;;17.37;;
3995;SDS011;2012;49.794;9.722;2023-04-16T06:46:17;23.03;;;15.23;;
3995;SDS011;2012;49.794;9.722;2023-04-16T06:48:44;25.30;;;17.47;;
3995;SDS011;2012;49.794;9.722;2023-04-16T06:51:11;25.00;;;16.23;;
3995;SDS011;2012;49.794;9.722;2023-04-16T06:53:38;25.70;;;17.30;;
3995;SDS011;2012;49.794;9.722;2023-04-16T06:56:05;22.73;;;16.33;;
3995;SDS011;2012;49.794;9.722;2023-04-16T06:58:32;25.30;;;16.30;;
3995;SDS011;2012;49.794;9.722;2023-04-16T07:00:59;26.40;;;17.77;;
3995;SDS011;2012;49.794;9.722;2023-04-16T07:03:27;22.70;;;11.20;;
3995;SDS011;2012;49.794;9.722;2023-04-16T07:05:55;28.03;;;17.50;;
3995;SDS011;2012;49.794;9.722;2023-04-16T07:08:21;32.90;;;15.00;;
3995;SDS011;2012;49.794;9.722;2023-04-16T07:10:49;28.83;;;15.70;;
3995;SDS011;2012;49.794;9.722;2023-04-16T07:13:16;24.40;;;14.97;;
3995;SDS011;2012;49.794;9.722;2023-04-16T07:15:43;19.77;;;14.73;;
3995;SDS011;2012;49.794;9.722;2023-04-16T07:18:10;19.50;;;15.47;;
3995;SDS011;2012;49.794;9.722;2023-04-16T07:20:37;21.50;;;15.10;;
3995;SDS011;2012;49.794;9.722;2023-04-16T07:23:04;24.20;;;14.77;;
3995;SDS011;2012;49.794;9.722;2023-04-16T07:25:31;18.53;;;13.23;;
3995;SDS011;2012;49.794;9.722;2023-04-16T07:27:58;18.37;;;12.50;;
3995;SDS011;2012;49.794;9.722;2023-04-16T07:30:24;21.47;;;13.60;;
3995;SDS011;2012;49.794;9.722;2023-04-16T07:32:58;17.90;;;12.90;;
3995;SDS011;2012;49.794;9.722;2023-04-16T07:35:28;16.43;;;11.83;;
3995;SDS011;2012;49.794;9.722;2023-04-16T07:37:56;16.93;;;12.17;;
3995;SDS011;2012;49.794;9.722;2023-04-16T07:40:23;15.67;;;12.37;;
3995;SDS011;2012;49.794;9.722;2023-04-16T07:42:50;15.00;;;11.67;;
3995;SDS011;2012;49.794;9.722;2023-04-16T07:45:17;19.20;;;12.63;;
3995;SDS011;2012;49.794;9.722;2023-04-16T07:47:44;22.67;;;11.50;;
3995;SDS011;2012;49.794;9.722;2023-04-16T07:50:11;16.37;;;11.20;;
3995;SDS011;2012;49.794;9.722;2023-04-16T07:52:38;13.03;;;9.27;;
3995;SDS011;2012;49.794;9.722;2023-04-16T07:55:07;11.00;;;9.10;;
3995;SDS011;2012;49.794;9.722;2023-04-16T07:57:35;12.70;;;10.00;;
3995;SDS011;2012;49.794;9.722;2023-04-16T08:00:02;12.30;;;9.47;;
3995;SDS011;2012;49.794;9.722;2023-04-16T08:02:38;11.10;;;8.97;;
3995;SDS011;2012;49.794;9.722;2023-04-16T08:05:05;10.27;;;8.20;;
3995;SDS011;2012;49.794;9.722;2023-04-16T08:07:33;10.50;;;8.33;;
3995;SDS011;2012;49.794;9.722;2023-04-16T08:10:00;12.87;;;9.03;;
3995;SDS011;2012;49.794;9.722;2023-04-16T08:12:28;11.50;;;8.70;;
3995;SDS011;2012;49.794;9.722;2023-04-16T08:14:55;14.17;;;9.67;;
3995;SDS011;2012;49.794;9.722;2023-04-16T08:17:21;8.67;;;7.77;;
3995;SDS011;2012;49.794;9.722;2023-04-16T08:19:48;11.37;;;8.23;;
3995;SDS011;2012;49.794;9.722;2023-04-16T08:22:15;14.83;;;7.80;;
3995;SDS011;2012;49.794;9.722;2023-04-16T08:24:42;10.70;;;8.93;;
3995;SDS011;2012;49.794;9.722;2023-04-16T08:27:09;11.80;;;8.93;;
3995;SDS011;2012;49.794;9.722;2023-04-16T08:29:45;12.13;;;7.43;;
3995;SDS011;2012;49.794;9.722;2023-04-16T08:32:12;8.03;;;6.90;;
3995;SDS011;2012;49.794;9.722;2023-04-16T08:34:39;8.23;;;7.20;;
3995;SDS011;2012;49.794;9.722;2023-04-16T08:37:07;7.97;;;5.20;;
3995;SDS011;2012;49.794;9.722;2023-04-16T08:39:34;7.03;;;6.30;;
3995;SDS011;2012;49.794;9.722;2023-04-16T08:42:04;8.10;;;7.07;;
3995;SDS011;2012;49.794;9.722;2023-04-16T08:44:32;9.03;;;5.90;;
3995;SDS011;2012;49.794;9.722;2023-04-16T08:47:02;8.27;;;6.53;;
3995;SDS011;2012;49.794;9.722;2023-04-16T08:49:35;9.47;;;6.90;;
3995;SDS011;2012;49.794;9.722;2023-04-16T08:52:08;10.80;;;8.00;;
3995;SDS011;2012;49.794;9.722;2023-04-16T08:54:44;6.67;;;5.97;;
3995;SDS011;2012;49.794;9.722;2023-04-16T08:57:22;7.63;;;6.40;;
3995;SDS011;2012;49.794;9.722;2023-04-16T08:59:55;7.27;;;6.07;;
3995;SDS011;2012;49.794;9.722;2023-04-16T09:02:24;7.37;;;6.20;;
3995;SDS011;2012;49.794;9.722;2023-04-16T09:04:52;7.60;;;6.60;;
3995;SDS011;2012;49.794;9.722;2023-04-16T09:07:21;10.70;;;7.90;;
3995;SDS011;2012;49.794;9.722;2023-04-16T09:09:51;8.63;;;5.67;;
3995;SDS011;2012;49.794;9.722;2023-04-16T09:12:20;8.53;;;6.43;;
3995;SDS011;2012;49.794;9.722;2023-04-16T09:14:49;7.03;;;5.43;;
3995;SDS011;2012;49.794;9.722;2023-04-16T09:17:19;6.63;;;5.97;;
3995;SDS011;2012;49.794;9.722;2023-04-16T09:19:46;6.50;;;5.90;;
3995;SDS011;2012;49.794;9.722;2023-04-16T09:22:13;8.17;;;6.07;;
3995;SDS011;2012;49.794;9.722;2023-04-16T09:24:40;6.30;;;5.67;;
3995;SDS011;2012;49.794;9.722;2023-04-16T09:27:07;9.27;;;6.90;;
3995;SDS011;2012;49.794;9.722;2023-04-16T09:29:35;7.20;;;5.70;;
3995;SDS011;2012;49.794;9.722;2023-04-16T09:32:04;5.50;;;5.00;;
3995;SDS011;2012;49.794;9.722;2023-04-16T09:34:33;5.10;;;4.60;;
3995;SDS011;2012;49.794;9.722;2023-04-16T09:37:16;4.93;;;4.43;;
3995;SDS011;2012;49.794;9.722;2023-04-16T09:39:44;5.73;;;4.83;;
3995;SDS011;2012;49.794;9.722;2023-04-16T09:42:22;6.47;;;5.57;;
3995;SDS011;2012;49.794;9.722;2023-04-16T09:44:50;8.73;;;6.53;;
3995;SDS011;2012;49.794;9.722;2023-04-16T09:47:18;8.03;;;6.40;;
3995;SDS011;2012;49.794;9.722;2023-04-16T09:49:46;6.83;;;5.83;;
3995;SDS011;2012;49.794;9.722;2023-04-16T09:57:20;5.20;;;4.70;;
3995;SDS011;2012;49.794;9.722;2023-04-16T09:59:55;5.93;;;5.07;;
3995;SDS011;2012;49.794;9.722;2023-04-16T10:02:30;5.60;;;4.83;;
3995;SDS011;2012;49.794;9.722;2023-04-16T10:04:58;6.47;;;5.87;;
3995;SDS011;2012;49.794;9.722;2023-04-16T10:07:28;5.93;;;5.40;;
3995;SDS011;2012;49.794;9.722;2023-04-16T10:09:58;6.73;;;5.43;;
3995;SDS011;2012;49.794;9.722;2023-04-16T10:12:25;5.40;;;4.90;;
3995;SDS011;2012;49.794;9.722;2023-04-16T10:14:53;6.30;;;5.40;;
3995;SDS011;2012;49.794;9.722;2023-04-16T10:17:20;10.67;;;6.10;;
3995;SDS011;2012;49.794;9.722;2023-04-16T10:19:49;5.40;;;4.90;;
3995;SDS011;2012;49.794;9.722;2023-04-16T10:22:17;6.13;;;5.50;;
3995;SDS011;2012;49.794;9.722;2023-04-16T10:24:44;8.90;;;6.40;;
3995;SDS011;2012;49.794;9.722;2023-04-16T10:27:12;7.70;;;5.33;;
3995;SDS011;2012;49.794;9.722;2023-04-16T10:29:39;7.90;;;6.20;;
3995;SDS011;2012;49.794;9.722;2023-04-16T10:32:06;6.23;;;5.40;;
3995;SDS011;2012;49.794;9.722;2023-04-16T10:34:33;7.13;;;5.37;;
3995;SDS011;2012;49.794;9.722;2023-04-16T10:37:01;5.67;;;4.90;;
3995;SDS011;2012;49.794;9.722;2023-04-16T10:39:28;5.23;;;4.73;;
3995;SDS011;2012;49.794;9.722;2023-04-16T10:42:08;7.77;;;5.43;;
3995;SDS011;2012;49.794;9.722;2023-04-16T10:44:36;5.43;;;4.93;;
3995;SDS011;2012;49.794;9.722;2023-04-16T10:47:08;5.67;;;5.10;;
3995;SDS011;2012;49.794;9.722;2023-04-16T10:49:37;5.20;;;4.70;;
3995;SDS011;2012;49.794;9.722;2023-04-16T10:52:08;7.20;;;5.77;;
3995;SDS011;2012;49.794;9.722;2023-04-16T10:54:42;7.33;;;6.17;;
3995;SDS011;2012;49.794;9.722;2023-04-16T10:57:13;7.80;;;6.33;;
3995;SDS011;2012;49.794;9.722;2023-04-16T10:59:43;13.33;;;6.00;;
3995;SDS011;2012;49.794;9.722;2023-04-16T11:02:15;5.77;;;5.23;;
3995;SDS011;2012;49.794;9.722;2023-04-16T11:04:44;6.33;;;5.73;;
3995;SDS011;2012;49.794;9.722;2023-04-16T11:09:43;10.30;;;7.90;;
3995;SDS011;2012;49.794;9.722;2023-04-16T11:12:34;7.20;;;6.07;;
3995;SDS011;2012;49.794;9.722;2023-04-16T11:15:05;6.30;;;5.70;;
3995;SDS011;2012;49.794;9.722;2023-04-16T11:20:30;8.00;;;6.47;;
3995;SDS011;2012;49.794;9.722;2023-04-16T11:22:56;7.97;;;6.30;;
3995;SDS011;2012;49.794;9.722;2023-04-16T11:25:24;7.83;;;7.13;;
3995;SDS011;2012;49.794;9.722;2023-04-16T11:27:55;8.43;;;7.13;;
3995;SDS011;2012;49.794;9.722;2023-04-16T11:30:33;7.83;;;6.30;;
3995;SDS011;2012;49.794;9.722;2023-04-16T11:33:01;7.50;;;6.60;;
3995;SDS011;2012;49.794;9.722;2023-04-16T11:35:29;9.10;;;7.83;;
3995;SDS011;2012;49.794;9.722;2023-04-16T11:37:56;10.83;;;7.87;;
3995;SDS011;2012;49.794;9.722;2023-04-16T11:40:24;8.73;;;7.83;;
3995;SDS011;2012;49.794;9.722;2023-04-16T11:42:54;10.97;;;8.67;;
3995;SDS011;2012;49.794;9.722;2023-04-16T11:45:23;9.30;;;8.30;;
3995;SDS011;2012;49.794;9.722;2023-04-16T11:47:50;8.83;;;7.63;;
3995;SDS011;2012;49.794;9.722;2023-04-16T11:50:21;10.13;;;8.90;;
3995;SDS011;2012;49.794;9.722;2023-04-16T11:52:50;8.70;;;7.80;;
3995;SDS011;2012;49.794;9.722;2023-04-16T11:55:18;8.77;;;7.90;;
3995;SDS011;2012;49.794;9.722;2023-04-16T11:57:47;8.37;;;7.50;;
3995;SDS011;2012;49.794;9.722;2023-04-16T12:00:16;9.90;;;7.80;;
3995;SDS011;2012;49.794;9.722;2023-04-16T12:02:50;6.90;;;6.30;;
3995;SDS011;2012;49.794;9.722;2023-04-16T12:05:31;7.67;;;6.67;;
3995;SDS011;2012;49.794;9.722;2023-04-16T12:08:01;7.90;;;7.10;;
3995;SDS011;2012;49.794;9.722;2023-04-16T12:10:30;6.77;;;6.10;;
3995;SDS011;2012;49.794;9.722;2023-04-16T12:13:13;6.90;;;6.20;;
3995;SDS011;2012;49.794;9.722;2023-04-16T12:15:42;6.07;;;5.47;;
3995;SDS011;2012;49.794;9.722;2023-04-16T12:18:10;6.27;;;5.67;;
3995;SDS011;2012;49.794;9.722;2023-04-16T12:20:40;6.37;;;5.77;;
3995;SDS011;2012;49.794;9.722;2023-04-16T12:23:08;9.80;;;6.20;;
3995;SDS011;2012;49.794;9.722;2023-04-16T12:25:36;6.30;;;5.70;;
3995;SDS011;2012;49.794;9.722;2023-04-16T12:28:03;7.53;;;6.73;;
3995;SDS011;2012;49.794;9.722;2023-04-16T12:30:30;8.33;;;5.67;;
3995;SDS011;2012;49.794;9.722;2023-04-16T12:33:13;7.47;;;6.67;;
3995;SDS011;2012;49.794;9.722;2023-04-16T12:35:44;7.07;;;6.40;;
3995;SDS011;2012;49.794;9.722;2023-04-16T12:38:11;7.60;;;6.80;;
3995;SDS011;2012;49.794;9.722;2023-04-16T12:40:40;6.30;;;5.70;;
3995;SDS011;2012;49.794;9.722;2023-04-16T12:43:08;6.07;;;5.47;;
3995;SDS011;2012;49.794;9.722;2023-04-16T12:45:37;8.20;;;6.97;;
3995;SDS011;2012;49.794;9.722;2023-04-16T12:48:05;6.93;;;6.23;;
3995;SDS011;2012;49.794;9.722;2023-04-16T12:50:32;6.87;;;6.17;;
3995;SDS011;2012;49.794;9.722;2023-04-16T12:52:59;8.40;;;5.97;;
3995;SDS011;2012;49.794;9.722;2023-04-16T12:55:25;6.50;;;5.87;;
3995;SDS011;2012;49.794;9.722;2023-04-16T12:57:52;5.57;;;5.07;;
3995;SDS011;2012;49.794;9.722;2023-04-16T13:00:20;6.47;;;5.87;;
3995;SDS011;2012;49.794;9.722;2023-04-16T13:02:47;6.90;;;6.20;;
3995;SDS011;2012;49.794;9.722;2023-04-16T13:05:14;7.10;;;6.20;;
3995;SDS011;2012;49.794;9.722;2023-04-16T13:07:42;9.87;;;7.37;;
3995;SDS011;2012;49.794;9.722;2023-04-16T13:10:09;9.07;;;6.57;;
3995;SDS011;2012;49.794;9.722;2023-04-16T13:12:36;7.20;;;6.50;;
3995;SDS011;2012;49.794;9.722;2023-04-16T13:15:03;8.27;;;7.47;;
3995;SDS011;2012;49.794;9.722;2023-04-16T13:17:30;8.87;;;7.27;;
3995;SDS011;2012;49.794;9.722;2023-04-16T13:19:57;7.60;;;6.50;;
3995;SDS011;2012;49.794;9.722;2023-04-16T13:22:24;9.83;;;6.90;;
3995;SDS011;2012;49.794;9.722;2023-04-16T13:24:51;9.03;;;7.90;;
3995;SDS011;2012;49.794;9.722;2023-04-16T13:27:18;9.10;;;7.97;;
3995;SDS011;2012;49.794;9.722;2023-04-16T13:29:45;11.67;;;8.40;;
3995;SDS011;2012;49.794;9.722;2023-04-16T13:32:12;10.40;;;7.70;;
3995;SDS011;2012;49.794;9.722;2023-04-16T13:34:40;9.23;;;8.20;;
3995;SDS011;2012;49.794;9.722;2023-04-16T13:37:06;8.03;;;7.10;;
3995;SDS011;2012;49.794;9.722;2023-04-16T13:39:33;9.90;;;8.27;;
3995;SDS011;2012;49.794;9.722;2023-04-16T13:42:00;9.67;;;8.57;;
3995;SDS011;2012;49.794;9.722;2023-04-16T13:44:27;11.17;;;9.00;;
3995;SDS011;2012;49.794;9.722;2023-04-16T13:46:54;12.13;;;9.60;;
3995;SDS011;2012;49.794;9.722;2023-04-16T13:49:21;12.17;;;10.27;;
3995;SDS011;2012;49.794;9.722;2023-04-16T13:51:48;13.13;;;9.13;;
3995;SDS011;2012;49.794;9.722;2023-04-16T13:54:15;10.50;;;8.33;;
3995;SDS011;2012;49.794;9.722;2023-04-16T13:56:42;9.47;;;8.47;;
3995;SDS011;2012;49.794;9.722;2023-04-16T13:59:09;13.70;;;9.47;;
3995;SDS011;2012;49.794;9.722;2023-04-16T14:01:36;9.87;;;8.23;;
3995;SDS011;2012;49.794;9.722;2023-04-16T14:04:03;12.40;;;9.90;;
3995;SDS011;2012;49.794;9.722;2023-04-16T14:06:33;12.13;;;9.70;;
3995;SDS011;2012;49.794;9.722;2023-04-16T14:09:00;13.00;;;9.63;;
3995;SDS011;2012;49.794;9.722;2023-04-16T14:11:27;13.50;;;9.40;;
3995;SDS011;2012;49.794;9.722;2023-04-16T14:13:54;9.60;;;8.63;;
3995;SDS011;2012;49.794;9.722;2023-04-16T14:16:21;12.93;;;9.87;;
3995;SDS011;2012;49.794;9.722;2023-04-16T14:18:48;9.97;;;8.57;;
3995;SDS011;2012;49.794;9.722;2023-04-16T14:21:16;20.03;;;9.00;;
3995;SDS011;2012;49.794;9.722;2023-04-16T14:23:43;9.33;;;8.40;;
3995;SDS011;2012;49.794;9.722;2023-04-16T14:26:10;9.47;;;8.47;;
3995;SDS011;2012;49.794;9.722;2023-04-16T14:28:37;8.80;;;7.90;;
3995;SDS011;2012;49.794;9.722;2023-04-16T14:31:06;10.07;;;8.20;;
3995;SDS011;2012;49.794;9.722;2023-04-16T14:33:32;9.90;;;8.80;;
3995;SDS011;2012;49.794;9.722;2023-04-16T14:35:59;9.80;;;8.17;;
3995;SDS011;2012;49.794;9.722;2023-04-16T14:38:28;10.70;;;8.90;;
3995;SDS011;2012;49.794;9.722;2023-04-16T14:40:56;12.10;;;8.03;;
3995;SDS011;2012;49.794;9.722;2023-04-16T14:43:23;9.57;;;7.50;;
3995;SDS011;2012;49.794;9.722;2023-04-16T14:45:49;9.53;;;8.10;;
3995;SDS011;2012;49.794;9.722;2023-04-16T14:48:18;9.53;;;8.57;;
3995;SDS011;2012;49.794;9.722;2023-04-16T14:50:45;11.50;;;7.93;;
3995;SDS011;2012;49.794;9.722;2023-04-16T14:53:12;8.07;;;7.23;;
3995;SDS011;2012;49.794;9.722;2023-04-16T14:55:38;10.60;;;8.07;;
3995;SDS011;2012;49.794;9.722;2023-04-16T14:58:05;8.73;;;7.40;;
3995;SDS011;2012;49.794;9.722;2023-04-16T15:00:35;9.60;;;7.97;;
3995;SDS011;2012;49.794;9.722;2023-04-16T15:03:02;9.20;;;7.07;;
3995;SDS011;2012;49.794;9.722;2023-04-16T15:05:30;9.40;;;7.67;;
3995;SDS011;2012;49.794;9.722;2023-04-16T15:07:57;11.20;;;8.00;;
3995;SDS011;2012;49.794;9.722;2023-04-16T15:10:23;10.07;;;8.23;;
3995;SDS011;2012;49.794;9.722;2023-04-16T15:12:50;9.03;;;7.60;;
3995;SDS011;2012;49.794;9.722;2023-04-16T15:15:17;9.43;;;8.37;;
3995;SDS011;2012;49.794;9.722;2023-04-16T15:17:44;10.57;;;7.70;;
3995;SDS011;2012;49.794;9.722;2023-04-16T15:20:11;7.03;;;6.33;;